Detall de PIREP

Printer-friendly versionPDF version

[2014/08/02 09:47:00]
Flight IATA:CT1004
Pilot Number:012
Company ICAO:CAT
Aircraft Type:A320/E
PAX:150
Departing Airport: LFBO
Destination Airport: LIEA
Alternate Airport:LIEO
Online: VATSIM
Route:AMOLO UT24 FJR UM731 PELOS
Flight Level:F330
No Slew and time accel
No pause
Crash detect
Detect pilot in Cockpit between each 30 and 45 minutes
09:47 Zero fuel Weight: 120603 Lbs, Fuel Weight: 13459 Lbs
09:47 VATSIM:LFBO 020900Z AUTO 22001KT 9999 SCT012 BKN056 21/18 Q1010
09:47 VATSIM:LIEA 020850Z 19006KT CAVOK 29/15 Q1011
09:47 SUMMER CHARTER
09:50 Parking Brakes off
09:58 Take-off
09:58 Take off Weight: 132953 Lbs
09:58 Wind: 000º @ 000 Knots Heading: 143º
09:58 POS N43º 37´ 17´´ E001º 22´ 25´´
09:58 Gear Up: 177 Knots
09:58 Flaps:3 at 177 Knots
09:58 Flaps:2 at 188 Knots
09:59 Flaps:1 at 200 Knots
09:59 Flaps:0 at 203 Knots
10:12 TOC
10:12 Fuel Weight: 8844 Lb
10:13 Wind:222º@052 Knots Heading: 109º Ground Speed: 483 Knots Altitude 32841 ft
10:28 Wind:226º@042 Knots Heading: 127º Ground Speed: 470 Knots Altitude 32890 ft
10:36 TOD
10:36 Fuel Weight: 6605 Lb
10:43 Wind:247º@038 Knots Heading: 131º Ground Speed: 363 Knots Altitude 17208 ft
10:54 Flaps:1 at 221 Knots
10:57 Flaps:3 at 183 Knots
10:58 Wind:200º@011 Knots Heading: 208º Ground Speed: 181 Knots Altitude 2719 ft
10:58 Gear Down: 164 Knots
10:58 Flaps:4 at 163 Knots
10:59 Flaps:5 at 141 Knots
11:01 TouchDown:Rate -222 ft/min Speed: 128 Knots
11:01 VATSIM:LIEA 021050Z 21010KT CAVOK 32/14 Q1010
11:01 Land
11:01 Wind:198º@010 Knots
11:01 Heading: 203º
11:01 Flight Duration: 01:03
11:01 Landing Weight: 125311 Lbs
11:01 POS N40º 37´ 59´´ E008º 17´ 29´´
11:05 Parking brakes on
11:05 Block to Block Duration: 01:15
11:05 Final Fuel: 4417 Lbls
11:05 Spent Fuel: 9041 Lbls
11:05 Flight Length: 401 NM
11:05 TOD Land Length: 121 NM

Exportar CSV

Powered by Drupal - Modified by Danger4k